KWDG/WDG METAR and TAF weather

Enter ICAO airport designator
Station Type Date Time Source
KWDG METAR 2020/01/21 15:45 UTC NOAA

KWDG 211545Z 12007KT 7SM BKN250 M04/M06 A3048


Station Type Date Time Source
KWDG Decoded METAR 2020/01/21 15:45 UTC NOAA

Enid, Enid Woodring Regional Airport, OK, United States (KWDG) 36-22-45N 097-47-28W
Jan 21, 2020 - 10:45 AM EST / 2020.01.21 1545 UTC
Wind: from the ESE (120 degrees) at 8 MPH (7 KT):0
Visibility: 7 mile(s):0
Sky conditions: mostly cloudy
Temperature: 24 F (-4 C)
Windchill: 15 F (-9 C):1
Dew Point: 21 F (-6 C)
Relative Humidity: 85%
Pressure (altimeter): 30.48 in. Hg (1032 hPa)
ob: KWDG 211545Z 12007KT 7SM BKN250 M04/M06 A3048
cycle: 16

Station Type Date Time Source
KWDG TAF UTC NOAA

Error!

Example: see airport list